Mitchells, Virginia
Current Conditions -  °F | °C
As of 6:35 AM on Friday 31 Oct 2014 (Local Time) from KOMH Reporting Station
Overcast Overcast  
Wind Chill: 36°   Ceiling: 5500
Heat Index: 36°   Visibility: 10mi
Dew Point: 36°   Wind: 0mph
Humidity: 100%   Direction: NA
Pressure: 30.01"   Gusts: NA
Location:  38.38°N, 78.03°W
Report Text: KOMH 311035Z AUTO 00000KT 10SM OVC055 02/02 A3001 RMK AO2
Loading
Personal Weather Stations






























Interactive Weather Map
Tropical Storm Tracking
New forecast layout! Learn more

10-Day Weather Forecast

Advertisements
Track Severe Weather on mobile